createdAt,value
2017-05-01T00:00:02.354Z,19.62
2017-05-01T00:01:12.306Z,19.71
2017-05-01T00:02:22.578Z,19.63
2017-05-01T00:03:32.527Z,19.62
2017-05-01T00:04:42.471Z,19.65
2017-05-01T00:05:52.729Z,19.71
2017-05-01T00:07:02.980Z,19.65
2017-05-01T00:08:12.920Z,19.56
2017-05-01T00:09:22.865Z,19.61
2017-05-01T00:10:33.121Z,19.61
2017-05-01T00:11:43.377Z,19.58
2017-05-01T00:12:53.313Z,19.65
2017-05-01T00:14:03.255Z,19.68
2017-05-01T00:15:12.879Z,19.56
2017-05-01T00:16:22.824Z,19.55
2017-05-01T00:17:32.455Z,19.68
2017-05-01T00:18:42.721Z,19.58
2017-05-01T00:19:52.667Z,19.59
2017-05-01T00:21:02.927Z,19.51
2017-05-01T00:22:12.883Z,19.55
2017-05-01T00:23:22.205Z,19.63
2017-05-01T00:24:31.842Z,19.47
2017-05-01T00:25:42.129Z,19.56
2017-05-01T00:26:51.753Z,19.55
2017-05-01T00:28:02.022Z,19.54
2017-05-01T00:29:11.972Z,19.55
2017-05-01T00:30:22.227Z,19.5
2017-05-01T00:31:31.855Z,19.59
2017-05-01T00:32:42.120Z,19.5
2017-05-01T00:33:52.389Z,19.5
2017-05-01T00:35:02.336Z,19.59
2017-05-01T00:36:12.274Z,19.54
2017-05-01T00:37:22.226Z,19.59
2017-05-01T00:38:32.182Z,19.59
2017-05-01T00:39:42.446Z,19.61
2017-05-01T00:40:52.395Z,19.58
2017-05-01T00:42:02.653Z,19.56
2017-05-01T00:43:12.912Z,19.48
2017-05-01T00:44:22.234Z,19.48
2017-05-01T00:45:32.501Z,19.5
2017-05-01T00:46:42.756Z,19.51
2017-05-01T00:47:53.013Z,19.55
2017-05-01T00:49:03.272Z,19.5
2017-05-01T00:50:13.218Z,19.58
2017-05-01T00:51:23.471Z,19.58
2017-05-01T00:52:33.726Z,19.59
2017-05-01T00:53:43.664Z,19.55
2017-05-01T00:54:53.922Z,19.59
2017-05-01T00:56:03.876Z,19.5
2017-05-01T00:57:13.818Z,19.58
2017-05-01T00:58:24.080Z,19.56
2017-05-01T00:59:33.718Z,19.48
2017-05-01T01:00:43.984Z,19.5
2017-05-01T01:01:53.616Z,19.5
2017-05-01T01:03:03.885Z,19.59
2017-05-01T01:04:14.157Z,19.56
2017-05-01T01:05:24.428Z,19.54
2017-05-01T01:06:34.690Z,19.5
2017-05-01T01:07:44.640Z,19.58
2017-05-01T01:08:54.900Z,19.55
2017-05-01T01:10:05.165Z,19.61
2017-05-01T01:11:15.423Z,19.59
2017-05-01T01:12:25.685Z,19.48
2017-05-01T01:13:35.951Z,19.54
2017-05-01T01:14:45.909Z,19.55
2017-05-01T01:15:55.859Z,19.56
2017-05-01T01:17:05.806Z,19.54
2017-05-01T01:18:15.749Z,19.51
2017-05-01T01:19:25.750Z,19.55
2017-05-01T01:20:35.745Z,19.56
2017-05-01T01:21:45.689Z,19.56
2017-05-01T01:22:55.950Z,19.47
2017-05-01T01:24:06.205Z,19.5
2017-05-01T01:25:15.830Z,19.51
2017-05-01T01:26:26.098Z,19.51
2017-05-01T01:27:36.047Z,19.46
2017-05-01T01:28:45.986Z,19.47
2017-05-01T01:29:56.256Z,19.47
2017-05-01T01:31:05.882Z,19.54
2017-05-01T01:32:15.828Z,19.5
2017-05-01T01:33:26.085Z,19.51
2017-05-01T01:34:36.026Z,19.51
2017-05-01T01:35:46.277Z,19.55
2017-05-01T01:36:56.220Z,19.5
2017-05-01T01:38:06.482Z,19.54
2017-05-01T01:39:16.109Z,19.58
2017-05-01T01:40:26.368Z,19.55
2017-05-01T01:41:36.620Z,19.56
2017-05-01T01:42:46.898Z,19.51
2017-05-01T01:43:56.852Z,19.58
2017-05-01T01:45:07.106Z,19.51
2017-05-01T01:46:17.048Z,19.47
2017-05-01T01:47:27.310Z,19.51
2017-05-01T01:48:37.574Z,19.51
2017-05-01T01:49:47.520Z,19.48
2017-05-01T01:50:57.466Z,19.4
2017-05-01T01:52:06.788Z,19.5
2017-05-01T01:53:16.729Z,19.51
2017-05-01T01:54:26.367Z,19.51
2017-05-01T01:55:36.308Z,19.46
2017-05-01T01:56:46.563Z,19.5
2017-05-01T01:57:56.827Z,19.51
2017-05-01T01:59:06.474Z,19.5
2017-05-01T02:00:16.417Z,19.47
2017-05-01T02:01:26.367Z,19.5
2017-05-01T02:02:36.309Z,19.51
2017-05-01T02:03:46.572Z,19.46
2017-05-01T02:04:56.826Z,19.48
2017-05-01T02:06:07.076Z,19.48
2017-05-01T02:07:17.360Z,19.51
2017-05-01T02:08:27.609Z,19.55
2017-05-01T02:09:37.867Z,19.51
2017-05-01T02:10:48.119Z,19.48
2017-05-01T02:11:58.315Z,19.46
2017-05-01T02:13:08.256Z,19.41
2017-05-01T02:14:17.892Z,19.48
2017-05-01T02:15:27.532Z,19.4
2017-05-01T02:16:37.474Z,19.39
2017-05-01T02:17:47.106Z,19.4
2017-05-01T02:18:57.373Z,19.46
2017-05-01T02:20:07.640Z,19.41
2017-05-01T02:21:17.273Z,19.47
2017-05-01T02:22:27.530Z,19.46
2017-05-01T02:23:37.799Z,19.44
2017-05-01T02:24:48.058Z,19.46
2017-05-01T02:25:57.682Z,19.37
2017-05-01T02:27:07.946Z,19.4
2017-05-01T02:28:18.207Z,19.43
2017-05-01T02:29:28.161Z,19.46
2017-05-01T02:30:38.436Z,19.4
2017-05-01T02:31:48.698Z,19.46
2017-05-01T02:32:58.961Z,19.37
2017-05-01T02:34:08.905Z,19.39
2017-05-01T02:35:17.909Z,19.37
2017-05-01T02:36:28.224Z,19.39
2017-05-01T02:37:38.480Z,19.44
2017-05-01T02:38:48.744Z,19.37
2017-05-01T02:39:58.733Z,19.4
2017-05-01T02:41:08.987Z,19.39
2017-05-01T02:42:19.243Z,19.37
2017-05-01T02:43:29.505Z,19.4
2017-05-01T02:44:39.756Z,19.41
2017-05-01T02:45:50.014Z,19.41
2017-05-01T02:46:59.958Z,19.41
2017-05-01T02:48:10.220Z,19.39
2017-05-01T02:49:19.853Z,19.44
2017-05-01T02:50:30.103Z,19.39
2017-05-01T02:51:40.044Z,19.4
2017-05-01T02:52:49.365Z,19.41
2017-05-01T02:53:59.633Z,19.4
2017-05-01T02:55:09.883Z,19.39
2017-05-01T02:56:19.829Z,19.4
2017-05-01T02:57:29.780Z,19.41
2017-05-01T02:58:40.060Z,19.39
2017-05-01T02:59:50.314Z,19.33
2017-05-01T03:01:00.257Z,19.43
2017-05-01T03:02:09.892Z,19.41
2017-05-01T03:03:20.152Z,19.36
2017-05-01T03:04:30.098Z,19.33
2017-05-01T03:05:40.043Z,19.4
2017-05-01T03:06:50.307Z,19.39
2017-05-01T03:08:00.255Z,19.41
2017-05-01T03:09:10.519Z,19.29
2017-05-01T03:10:20.776Z,19.36
2017-05-01T03:11:31.032Z,19.32
2017-05-01T03:12:40.994Z,19.31
2017-05-01T03:13:50.946Z,19.16
2017-05-01T03:15:00.583Z,19.06
2017-05-01T03:16:10.535Z,19.13
2017-05-01T03:17:20.162Z,19.16
2017-05-01T03:18:30.421Z,19.19
2017-05-01T03:19:40.689Z,19.25
2017-05-01T03:20:50.947Z,19.29
2017-05-01T03:22:00.891Z,19.32
2017-05-01T03:23:10.833Z,19.32
2017-05-01T03:24:21.100Z,19.26
2017-05-01T03:25:30.725Z,19.26
2017-05-01T03:26:40.661Z,19.39
2017-05-01T03:27:50.295Z,19.29
2017-05-01T03:29:00.238Z,19.25
2017-05-01T03:30:09.868Z,19.31
2017-05-01T03:31:19.807Z,19.31
2017-05-01T03:32:30.061Z,19.39
2017-05-01T03:33:40.317Z,19.31
2017-05-01T03:34:50.291Z,19.31
2017-05-01T03:36:00.554Z,19.26
2017-05-01T03:37:10.818Z,19.32
2017-05-01T03:38:21.079Z,19.28
2017-05-01T03:39:31.023Z,19.39
2017-05-01T03:40:40.965Z,19.28
2017-05-01T03:41:51.221Z,19.28
2017-05-01T03:43:01.479Z,19.32
2017-05-01T03:44:11.435Z,19.31
2017-05-01T03:45:21.387Z,19.33
2017-05-01T03:46:31.338Z,19.32
2017-05-01T03:47:40.971Z,19.32
2017-05-01T03:48:50.607Z,19.33
2017-05-01T03:50:00.869Z,19.31
2017-05-01T03:51:11.139Z,19.32
2017-05-01T03:52:21.395Z,19.32
2017-05-01T03:53:31.667Z,19.26
2017-05-01T03:54:41.295Z,19.32
2017-05-01T03:55:51.556Z,19.29
2017-05-01T03:57:01.847Z,19.36
2017-05-01T03:58:11.785Z,19.32
2017-05-01T03:59:22.060Z,19.32
2017-05-01T04:00:32.001Z,19.25
2017-05-01T04:01:42.262Z,19.36
2017-05-01T04:02:52.521Z,19.31
2017-05-01T04:04:02.475Z,19.32
2017-05-01T04:05:12.422Z,19.33
2017-05-01T04:06:22.689Z,19.33
2017-05-01T04:07:32.943Z,19.29
2017-05-01T04:08:42.891Z,19.28
2017-05-01T04:09:52.838Z,19.28
2017-05-01T04:11:03.093Z,19.32
2017-05-01T04:12:13.064Z,19.33
2017-05-01T04:13:23.018Z,19.26
2017-05-01T04:14:33.279Z,19.33
2017-05-01T04:15:42.910Z,19.25
2017-05-01T04:16:52.866Z,19.32
2017-05-01T04:18:02.491Z,19.31
2017-05-01T04:19:12.796Z,19.29
2017-05-01T04:20:23.055Z,19.32
2017-05-01T04:21:33.319Z,19.28
2017-05-01T04:22:42.945Z,19.31
2017-05-01T04:23:53.208Z,19.43
2017-05-01T04:25:03.158Z,19.36
2017-05-01T04:26:13.419Z,19.32
2017-05-01T04:27:23.682Z,19.4
2017-05-01T04:28:33.313Z,19.36
2017-05-01T04:29:43.260Z,19.46
2017-05-01T04:30:53.206Z,19.46
2017-05-01T04:32:03.460Z,19.44
2017-05-01T04:33:13.105Z,19.4
2017-05-01T04:34:23.050Z,19.39
2017-05-01T04:35:32.990Z,19.25
2017-05-01T04:36:43.250Z,19.28
2017-05-01T04:37:53.208Z,19.41
2017-05-01T04:39:03.472Z,19.43
2017-05-01T04:40:13.728Z,19.5
2017-05-01T04:41:23.360Z,19.58
2017-05-01T04:42:33.301Z,19.55
2017-05-01T04:43:43.247Z,19.54
2017-05-01T04:44:53.508Z,19.62
2017-05-01T04:46:03.772Z,19.56
2017-05-01T04:47:13.713Z,19.5
2017-05-01T04:48:23.972Z,19.55
2017-05-01T04:49:33.914Z,19.55
2017-05-01T04:50:43.863Z,19.58
2017-05-01T04:51:54.119Z,19.63
2017-05-01T04:53:04.371Z,19.66
2017-05-01T04:54:14.638Z,19.62
2017-05-01T04:55:24.909Z,19.59
2017-05-01T04:56:35.163Z,19.61
2017-05-01T04:57:45.113Z,19.63
2017-05-01T04:58:55.062Z,19.61
2017-05-01T05:00:05.010Z,19.61
2017-05-01T05:01:14.953Z,19.58
2017-05-01T05:02:24.589Z,19.66
2017-05-01T05:03:34.855Z,19.66
2017-05-01T05:04:45.113Z,19.63
2017-05-01T05:05:55.056Z,19.66
2017-05-01T05:07:05.320Z,19.61
2017-05-01T05:08:15.582Z,19.62
2017-05-01T05:09:25.529Z,19.55
2017-05-01T05:10:35.793Z,19.63
2017-05-01T05:11:46.058Z,19.62
2017-05-01T05:12:56.318Z,19.62
2017-05-01T05:14:06.585Z,19.59
2017-05-01T05:15:15.905Z,19.59
2017-05-01T05:16:26.165Z,19.58
2017-05-01T05:17:36.420Z,19.66
2017-05-01T05:18:46.679Z,19.66
2017-05-01T05:19:56.936Z,19.63
2017-05-01T05:21:07.209Z,19.62
2017-05-01T05:22:17.466Z,19.62
2017-05-01T05:23:27.730Z,19.61
2017-05-01T05:24:37.666Z,19.58
2017-05-01T05:25:47.921Z,19.62
2017-05-01T05:26:58.176Z,19.74
2017-05-01T05:28:08.440Z,19.69
2017-05-01T05:29:17.758Z,19.71
2017-05-01T05:30:27.699Z,19.71
2017-05-01T05:31:37.954Z,19.71
2017-05-01T05:32:48.213Z,19.73
2017-05-01T05:33:58.480Z,19.68
2017-05-01T05:35:08.740Z,19.77
2017-05-01T05:36:18.712Z,19.73
2017-05-01T05:37:28.968Z,19.78
2017-05-01T05:38:38.911Z,19.71
2017-05-01T05:39:48.854Z,19.74
2017-05-01T05:40:58.810Z,19.76
2017-05-01T05:42:09.064Z,19.69
2017-05-01T05:43:19.323Z,19.66
2017-05-01T05:44:29.267Z,19.74
2017-05-01T05:45:39.524Z,19.66
2017-05-01T05:46:49.155Z,19.71
2017-05-01T05:47:58.799Z,19.71
2017-05-01T05:49:09.067Z,19.8
2017-05-01T05:50:19.319Z,19.73
2017-05-01T05:51:29.261Z,19.69
2017-05-01T05:52:39.201Z,19.8
2017-05-01T05:53:48.834Z,19.71
2017-05-01T05:54:58.793Z,19.71
2017-05-01T05:56:09.064Z,19.78
2017-05-01T05:57:19.327Z,19.83
2017-05-01T05:58:29.588Z,19.81
2017-05-01T05:59:39.541Z,19.81
2017-05-01T06:00:49.481Z,19.84
2017-05-01T06:01:59.745Z,19.83
2017-05-01T06:03:10.045Z,19.8
2017-05-01T06:04:20.303Z,19.8
2017-05-01T06:05:30.557Z,19.8
2017-05-01T06:06:40.811Z,19.84
2017-05-01T06:07:50.753Z,19.78
2017-05-01T06:09:00.404Z,19.76
2017-05-01T06:10:10.038Z,19.81
2017-05-01T06:11:19.669Z,19.76
2017-05-01T06:12:29.620Z,19.81
2017-05-01T06:13:39.884Z,19.84
2017-05-01T06:14:49.826Z,19.84
2017-05-01T06:16:00.086Z,19.78
2017-05-01T06:17:09.716Z,19.81
2017-05-01T06:18:19.663Z,19.83
2017-05-01T06:19:29.297Z,19.78
2017-05-01T06:20:39.561Z,19.87
2017-05-01T06:21:49.499Z,19.87
2017-05-01T06:22:59.439Z,19.86
2017-05-01T06:24:09.706Z,19.81
2017-05-01T06:25:19.964Z,19.88
2017-05-01T06:26:30.232Z,19.83
2017-05-01T06:27:40.487Z,19.83
2017-05-01T06:28:50.745Z,19.86
2017-05-01T06:30:00.373Z,19.81
2017-05-01T06:31:10.315Z,19.96
2017-05-01T06:32:20.263Z,20.05
2017-05-01T06:33:30.526Z,20.06
2017-05-01T06:34:40.471Z,20.11
2017-05-01T06:35:50.414Z,20.1
2017-05-01T06:37:00.671Z,20.01
2017-05-01T06:38:10.304Z,20.11
2017-05-01T06:39:20.242Z,20.05
2017-05-01T06:40:29.878Z,20.06
2017-05-01T06:41:40.138Z,20.02
2017-05-01T06:42:50.083Z,20.03
2017-05-01T06:44:00.340Z,20.11
2017-05-01T06:45:09.968Z,20.11
2017-05-01T06:46:19.914Z,20.13
2017-05-01T06:47:29.540Z,20.11
2017-05-01T06:48:39.809Z,20.14
2017-05-01T06:49:49.756Z,20.18
2017-05-01T06:51:00.013Z,20.16
2017-05-01T06:52:09.962Z,20.14
2017-05-01T06:53:20.225Z,20.14
2017-05-01T06:54:30.494Z,20.1
2017-05-01T06:55:40.762Z,19.95
2017-05-01T06:56:51.037Z,19.94
2017-05-01T06:58:01.294Z,19.95
2017-05-01T06:59:11.233Z,19.95
2017-05-01T07:00:21.177Z,19.96
2017-05-01T07:01:31.122Z,19.98
2017-05-01T07:02:41.075Z,19.98
2017-05-01T07:03:51.023Z,19.96
2017-05-01T07:05:01.277Z,19.98
2017-05-01T07:06:11.538Z,19.98
2017-05-01T07:07:21.489Z,20.06
2017-05-01T07:08:31.756Z,20.01
2017-05-01T07:09:42.023Z,20.13
2017-05-01T07:10:51.962Z,20.11
2017-05-01T07:12:02.227Z,20.01
2017-05-01T07:13:12.485Z,19.98
2017-05-01T07:14:22.424Z,19.95
2017-05-01T07:15:32.693Z,20.01
2017-05-01T07:16:42.950Z,19.94
2017-05-01T07:17:52.896Z,19.98
2017-05-01T07:19:02.847Z,19.98
2017-05-01T07:20:12.800Z,19.94
2017-05-01T07:21:23.058Z,19.98
2017-05-01T07:22:33.312Z,19.95
2017-05-01T07:23:43.567Z,19.95
2017-05-01T07:24:53.519Z,19.99
2017-05-01T07:26:03.776Z,19.96
2017-05-01T07:27:14.039Z,19.95
2017-05-01T07:28:24.291Z,19.98
2017-05-01T07:29:34.552Z,20.01
2017-05-01T07:30:44.489Z,19.94
2017-05-01T07:31:54.436Z,19.96
2017-05-01T07:33:04.383Z,19.91
2017-05-01T07:34:14.640Z,19.96
2017-05-01T07:35:24.598Z,20.03
2017-05-01T07:36:34.859Z,20.06
2017-05-01T07:37:44.808Z,20.03
2017-05-01T07:38:54.125Z,19.95
2017-05-01T07:40:03.755Z,19.96
2017-05-01T07:41:14.019Z,19.95
2017-05-01T07:42:23.341Z,20.01
2017-05-01T07:43:33.627Z,19.95
2017-05-01T07:44:43.577Z,19.96
2017-05-01T07:45:53.830Z,19.95
2017-05-01T07:47:04.098Z,20.08
2017-05-01T07:48:14.356Z,20.11
2017-05-01T07:49:24.627Z,20.1
2017-05-01T07:50:34.254Z,19.99
2017-05-01T07:51:44.506Z,19.96
2017-05-01T07:52:54.772Z,20.08
2017-05-01T07:54:05.034Z,20.11
2017-05-01T07:55:15.305Z,20.08
2017-05-01T07:56:25.569Z,20.02
2017-05-01T07:57:35.519Z,20.02
2017-05-01T07:58:45.464Z,20.1
2017-05-01T07:59:55.723Z,20.14
2017-05-01T08:01:05.992Z,20.11
2017-05-01T08:02:15.942Z,20.18
2017-05-01T08:03:25.884Z,20.16
2017-05-01T08:04:35.831Z,20.14
2017-05-01T08:05:46.093Z,20.08
2017-05-01T08:06:55.716Z,20.08
2017-05-01T08:08:05.350Z,20.16
2017-05-01T08:09:14.992Z,20.16
2017-05-01T08:10:25.259Z,20.11
2017-05-01T08:11:35.211Z,20.17
2017-05-01T08:12:45.379Z,20.16
2017-05-01T08:13:55.638Z,20.16
2017-05-01T08:15:05.286Z,20.2
2017-05-01T08:16:14.917Z,20.2
2017-05-01T08:17:25.181Z,20.14
2017-05-01T08:18:35.469Z,20.24
2017-05-01T08:19:45.731Z,20.24
2017-05-01T08:20:55.366Z,20.26
2017-05-01T08:22:05.317Z,20.23
2017-05-01T08:23:14.964Z,20.32
2017-05-01T08:24:25.235Z,20.21
2017-05-01T08:25:35.180Z,20.23
2017-05-01T08:26:44.809Z,20.29
2017-05-01T08:27:55.071Z,20.26
2017-05-01T08:29:04.719Z,20.29
2017-05-01T08:30:14.669Z,20.23
2017-05-01T08:31:24.613Z,20.21
2017-05-01T08:32:34.880Z,20.28
2017-05-01T08:33:45.146Z,20.23
2017-05-01T08:34:55.409Z,20.23
2017-05-01T08:36:05.669Z,20.24
2017-05-01T08:37:15.298Z,20.28
2017-05-01T08:38:25.562Z,20.26
2017-05-01T08:39:35.832Z,20.16
2017-05-01T08:40:46.106Z,20.13
2017-05-01T08:41:55.735Z,20.16
2017-05-01T08:43:06.027Z,20.14
2017-05-01T08:44:15.663Z,20.2
2017-05-01T08:45:25.651Z,20.28
2017-05-01T08:46:35.904Z,20.28
2017-05-01T08:47:45.889Z,20.24
2017-05-01T08:48:55.842Z,20.24
2017-05-01T08:50:05.473Z,20.23
2017-05-01T08:51:15.425Z,20.24
2017-05-01T08:52:25.060Z,20.29
2017-05-01T08:53:35.357Z,20.31
2017-05-01T08:54:45.624Z,20.23
2017-05-01T08:55:55.882Z,20.24
2017-05-01T08:57:05.508Z,20.29
2017-05-01T08:58:15.768Z,20.36
2017-05-01T08:59:25.726Z,20.38
2017-05-01T09:00:35.986Z,20.51
2017-05-01T09:01:45.928Z,20.47
2017-05-01T09:02:56.180Z,20.43
2017-05-01T09:04:06.452Z,20.38
2017-05-01T09:05:16.098Z,20.31
2017-05-01T09:06:26.363Z,20.36
2017-05-01T09:07:36.625Z,20.51
2017-05-01T09:08:46.886Z,20.48
2017-05-01T09:09:56.838Z,20.48
2017-05-01T09:11:06.790Z,20.48
2017-05-01T09:12:16.744Z,20.5
2017-05-01T09:13:26.700Z,20.38
2017-05-01T09:14:36.371Z,20.35
2017-05-01T09:15:46.626Z,20.33
2017-05-01T09:16:56.248Z,20.35
2017-05-01T09:18:06.201Z,20.36
2017-05-01T09:19:15.528Z,20.33
2017-05-01T09:20:25.789Z,20.33
2017-05-01T09:21:35.729Z,20.33
2017-05-01T09:22:45.983Z,20.31
2017-05-01T09:23:56.238Z,20.29
2017-05-01T09:25:06.195Z,20.36
2017-05-01T09:26:16.445Z,20.32
2017-05-01T09:27:26.702Z,20.33
2017-05-01T09:28:36.647Z,20.33
2017-05-01T09:29:46.586Z,20.33
2017-05-01T09:30:56.857Z,20.31
2017-05-01T09:32:07.129Z,20.26
2017-05-01T09:33:17.384Z,20.16
2017-05-01T09:34:27.326Z,20.01
2017-05-01T09:35:37.275Z,20.06
2017-05-01T09:36:47.221Z,20.14
2017-05-01T09:37:57.207Z,20.26
2017-05-01T09:39:07.476Z,20.31
2017-05-01T09:40:17.117Z,20.33
2017-05-01T09:41:27.369Z,20.32
2017-05-01T09:42:37.315Z,20.32
2017-05-01T09:43:47.275Z,20.42
2017-05-01T09:44:57.542Z,20.43
2017-05-01T09:46:07.531Z,20.43
2017-05-01T09:47:17.468Z,20.47
2017-05-01T09:48:27.761Z,20.41
2017-05-01T09:49:37.705Z,20.52
2017-05-01T09:50:47.656Z,20.52
2017-05-01T09:51:56.975Z,20.5
2017-05-01T09:53:07.242Z,20.43
2017-05-01T09:54:16.892Z,20.5
2017-05-01T09:55:26.535Z,20.47
2017-05-01T09:56:36.479Z,20.47
2017-05-01T09:57:46.424Z,20.51
2017-05-01T09:58:56.053Z,20.47
2017-05-01T10:00:06.316Z,20.51
2017-05-01T10:01:16.582Z,20.61
2017-05-01T10:02:26.526Z,20.58
2017-05-01T10:03:36.166Z,20.59
2017-05-01T10:04:46.423Z,20.58
2017-05-01T10:05:56.673Z,20.62
2017-05-01T10:07:06.000Z,20.62
2017-05-01T10:08:15.953Z,20.64
2017-05-01T10:09:26.225Z,20.61
2017-05-01T10:10:36.207Z,20.61
2017-05-01T10:11:46.303Z,20.64
2017-05-01T10:12:56.810Z,20.72
2017-05-01T10:14:06.916Z,20.79
2017-05-01T10:15:16.867Z,20.74
2017-05-01T10:16:26.811Z,20.76
2017-05-01T10:17:37.066Z,20.77
2017-05-01T10:18:47.324Z,20.67
2017-05-01T10:19:57.584Z,20.77
2017-05-01T10:21:07.844Z,20.72
2017-05-01T10:22:17.799Z,20.76
2017-05-01T10:23:27.746Z,20.8
2017-05-01T10:24:37.753Z,20.8
2017-05-01T10:25:47.709Z,20.79
2017-05-01T10:26:57.652Z,20.82
2017-05-01T10:28:07.593Z,20.85
2017-05-01T10:29:17.547Z,20.8
2017-05-01T10:30:26.907Z,20.73
2017-05-01T10:31:36.850Z,20.79
2017-05-01T10:32:46.483Z,20.8
2017-05-01T10:33:56.747Z,20.76
2017-05-01T10:35:06.377Z,20.74
2017-05-01T10:36:16.319Z,20.89
2017-05-01T10:37:26.270Z,20.87
2017-05-01T10:38:36.218Z,20.76
2017-05-01T10:39:46.164Z,20.73
2017-05-01T10:40:55.809Z,20.8
2017-05-01T10:42:05.750Z,20.72
2017-05-01T10:43:15.699Z,20.74
2017-05-01T10:44:25.646Z,20.77
2017-05-01T10:45:35.798Z,20.8
2017-05-01T10:46:46.059Z,20.74
2017-05-01T10:47:56.019Z,20.76
2017-05-01T10:49:05.966Z,20.79
2017-05-01T10:50:15.588Z,20.77
2017-05-01T10:51:24.907Z,20.82
2017-05-01T10:52:34.861Z,20.77
2017-05-01T10:53:44.812Z,20.77
2017-05-01T10:54:55.066Z,20.79
2017-05-01T10:56:05.331Z,20.74
2017-05-01T10:57:15.643Z,20.82
2017-05-01T10:58:25.703Z,20.79
2017-05-01T10:59:35.668Z,20.76
2017-05-01T11:00:45.616Z,20.79
2017-05-01T11:01:55.871Z,20.74
2017-05-01T11:03:05.498Z,20.74
2017-05-01T11:04:15.447Z,20.72
2017-05-01T11:05:25.704Z,20.74
2017-05-01T11:06:35.959Z,20.73
2017-05-01T11:07:46.224Z,20.73
2017-05-01T11:08:55.548Z,20.74
2017-05-01T11:10:05.501Z,20.74
2017-05-01T11:11:15.789Z,20.79
2017-05-01T11:12:26.052Z,20.72
2017-05-01T11:13:36.311Z,20.74
2017-05-01T11:14:46.579Z,20.77
2017-05-01T11:15:56.219Z,20.7
2017-05-01T11:17:06.476Z,20.82
2017-05-01T11:18:16.421Z,20.72
2017-05-01T11:19:26.044Z,20.72
2017-05-01T11:20:36.300Z,20.79
2017-05-01T11:21:46.565Z,20.72
2017-05-01T11:22:56.201Z,20.72
2017-05-01T11:24:06.454Z,20.74
2017-05-01T11:25:16.087Z,20.74
2017-05-01T11:26:25.717Z,20.74
2017-05-01T11:27:35.999Z,20.69
2017-05-01T11:28:45.947Z,20.74
2017-05-01T11:29:55.574Z,20.72
2017-05-01T11:31:05.200Z,20.73
2017-05-01T11:32:15.460Z,20.76
2017-05-01T11:33:25.718Z,20.76
2017-05-01T11:34:35.970Z,20.77
2017-05-01T11:35:45.914Z,20.73
2017-05-01T11:36:55.541Z,20.82
2017-05-01T11:38:05.491Z,20.74
2017-05-01T11:39:15.127Z,20.77
2017-05-01T11:40:25.076Z,20.79
2017-05-01T11:41:35.015Z,20.76
2017-05-01T11:42:45.274Z,20.76
2017-05-01T11:43:55.222Z,20.82
2017-05-01T11:45:05.480Z,20.76
2017-05-01T11:46:14.801Z,20.73
2017-05-01T11:47:24.921Z,20.67
2017-05-01T11:48:35.060Z,20.73
2017-05-01T11:49:45.594Z,20.67
2017-05-01T11:50:55.282Z,20.77
2017-05-01T11:52:05.541Z,20.79
2017-05-01T11:53:15.172Z,20.76
2017-05-01T11:54:25.116Z,20.77
2017-05-01T11:55:35.058Z,20.76
2017-05-01T11:56:45.314Z,20.73
2017-05-01T11:57:55.259Z,20.73
2017-05-01T11:59:05.213Z,20.76
2017-05-01T12:00:15.505Z,20.74
2017-05-01T12:01:25.765Z,20.76
2017-05-01T12:02:36.019Z,20.77
2017-05-01T12:03:45.651Z,20.79
2017-05-01T12:04:55.293Z,20.79
2017-05-01T12:06:05.591Z,20.84
2017-05-01T12:07:15.543Z,20.77
2017-05-01T12:08:25.807Z,20.76
2017-05-01T12:09:35.751Z,20.74
2017-05-01T12:10:46.007Z,20.7
2017-05-01T12:11:55.957Z,20.79
2017-05-01T12:13:05.907Z,20.8
2017-05-01T12:14:16.202Z,20.82
2017-05-01T12:15:26.461Z,20.76
2017-05-01T12:16:36.719Z,20.76
2017-05-01T12:17:46.975Z,20.76
2017-05-01T12:18:56.923Z,20.8
2017-05-01T12:20:06.555Z,20.74
2017-05-01T12:21:16.501Z,20.76
2017-05-01T12:22:26.769Z,20.74
2017-05-01T12:23:37.028Z,20.82
2017-05-01T12:24:47.283Z,20.77
2017-05-01T12:25:57.229Z,20.76
2017-05-01T12:27:07.174Z,20.77
2017-05-01T12:28:17.430Z,20.74
2017-05-01T12:29:27.403Z,20.79
2017-05-01T12:30:37.354Z,20.77
2017-05-01T12:31:47.302Z,20.77
2017-05-01T12:32:57.252Z,20.74
2017-05-01T12:34:07.515Z,20.73
2017-05-01T12:35:16.842Z,20.77
2017-05-01T12:36:26.790Z,20.76
2017-05-01T12:37:37.050Z,20.77
2017-05-01T12:38:47.308Z,20.74
2017-05-01T12:39:57.585Z,20.79
2017-05-01T12:41:07.534Z,20.79
2017-05-01T12:42:17.480Z,20.77
2017-05-01T12:43:27.740Z,20.76
2017-05-01T12:44:37.371Z,20.77
2017-05-01T12:45:47.627Z,20.77
2017-05-01T12:46:57.889Z,20.77
2017-05-01T12:48:08.144Z,20.79
2017-05-01T12:49:18.088Z,20.73
2017-05-01T12:50:28.353Z,20.77
2017-05-01T12:51:38.298Z,20.8
2017-05-01T12:52:48.249Z,20.79
2017-05-01T12:53:58.519Z,20.74
2017-05-01T12:55:08.149Z,20.84
2017-05-01T12:56:17.771Z,20.74
2017-05-01T12:57:28.030Z,20.77
2017-05-01T12:58:37.975Z,20.84
2017-05-01T12:59:48.238Z,20.74
2017-05-01T13:00:58.183Z,20.74
2017-05-01T13:02:08.126Z,20.79
2017-05-01T13:03:17.436Z,20.77
2017-05-01T13:04:27.727Z,20.8
2017-05-01T13:05:37.992Z,20.72
2017-05-01T13:06:47.934Z,20.7
2017-05-01T13:07:57.881Z,20.64
2017-05-01T13:09:08.146Z,20.79
2017-05-01T13:10:18.094Z,20.74
2017-05-01T13:11:28.346Z,20.79
2017-05-01T13:12:38.298Z,20.84
2017-05-01T13:13:48.602Z,20.76
2017-05-01T13:14:58.860Z,20.69
2017-05-01T13:16:08.805Z,20.82
2017-05-01T13:17:18.741Z,20.79
2017-05-01T13:18:28.062Z,20.91
2017-05-01T13:19:38.009Z,20.79
2017-05-01T13:20:48.268Z,20.8
2017-05-01T13:21:58.220Z,20.76
2017-05-01T13:23:07.858Z,20.61
2017-05-01T13:24:17.177Z,20.73
2017-05-01T13:25:27.121Z,20.66
2017-05-01T13:26:37.069Z,20.84
2017-05-01T13:27:47.337Z,20.79
2017-05-01T13:28:57.593Z,20.73
2017-05-01T13:30:07.543Z,20.79
2017-05-01T13:31:17.181Z,20.69
2017-05-01T13:32:27.435Z,20.73
2017-05-01T13:33:37.701Z,20.82
2017-05-01T13:34:47.965Z,20.76
2017-05-01T13:35:58.259Z,20.85
2017-05-01T13:37:08.519Z,20.82
2017-05-01T13:38:17.877Z,20.82
2017-05-01T13:39:28.149Z,20.76
2017-05-01T13:40:38.093Z,20.88
2017-05-01T13:41:48.360Z,20.82
2017-05-01T13:42:57.989Z,20.79
2017-05-01T13:44:07.939Z,20.84
2017-05-01T13:45:17.898Z,20.8
2017-05-01T13:46:27.533Z,20.84
2017-05-01T13:47:37.795Z,20.79
2017-05-01T13:48:48.056Z,20.73
2017-05-01T13:49:58.009Z,20.79
2017-05-01T13:51:07.957Z,20.76
2017-05-01T13:52:18.227Z,20.84
2017-05-01T13:53:28.492Z,20.76
2017-05-01T13:54:38.751Z,20.77
2017-05-01T13:55:49.038Z,20.84
2017-05-01T13:56:59.297Z,20.79
2017-05-01T13:58:09.250Z,20.85
2017-05-01T13:59:19.203Z,20.82
2017-05-01T14:00:29.724Z,20.84
2017-05-01T14:01:39.667Z,20.84
2017-05-01T14:02:49.937Z,20.85
2017-05-01T14:04:00.204Z,20.79
2017-05-01T14:05:09.839Z,20.88
2017-05-01T14:06:19.787Z,20.89
2017-05-01T14:07:30.041Z,20.88
2017-05-01T14:08:40.308Z,20.99
2017-05-01T14:09:50.572Z,21.03
2017-05-01T14:11:00.876Z,21.14
2017-05-01T14:12:10.830Z,21.07
2017-05-01T14:13:21.086Z,21.1
2017-05-01T14:14:31.033Z,21.09
2017-05-01T14:15:41.295Z,21.04
2017-05-01T14:16:51.239Z,20.95
2017-05-01T14:18:01.199Z,20.91
2017-05-01T14:19:11.469Z,20.88
2017-05-01T14:20:21.110Z,20.91
2017-05-01T14:21:31.055Z,20.94
2017-05-01T14:22:41.043Z,20.88
2017-05-01T14:23:50.991Z,20.79
2017-05-01T14:25:01.258Z,20.8
2017-05-01T14:26:11.202Z,20.82
2017-05-01T14:27:21.479Z,20.8
2017-05-01T14:28:31.140Z,20.84
2017-05-01T14:29:41.401Z,20.82
2017-05-01T14:30:51.349Z,20.82
2017-05-01T14:32:01.614Z,20.82
2017-05-01T14:33:11.564Z,20.77
2017-05-01T14:34:21.238Z,20.82
2017-05-01T14:35:31.500Z,20.82
2017-05-01T14:36:41.450Z,20.82
2017-05-01T14:37:51.714Z,20.84
2017-05-01T14:39:01.045Z,20.85
2017-05-01T14:40:11.310Z,20.79
2017-05-01T14:41:21.301Z,20.8
2017-05-01T14:42:31.241Z,20.87
2017-05-01T14:43:40.874Z,20.85
2017-05-01T14:44:51.131Z,20.79
2017-05-01T14:46:01.079Z,20.77
2017-05-01T14:47:11.362Z,20.76
2017-05-01T14:48:21.315Z,20.91
2017-05-01T14:49:30.964Z,20.84
2017-05-01T14:50:40.913Z,20.8
2017-05-01T14:51:50.858Z,20.87
2017-05-01T14:53:01.123Z,20.87
2017-05-01T14:54:11.382Z,20.87
2017-05-01T14:55:21.013Z,20.84
2017-05-01T14:56:31.269Z,20.85
2017-05-01T14:57:41.533Z,20.79
2017-05-01T14:58:51.479Z,20.79
2017-05-01T15:00:01.733Z,20.88
2017-05-01T15:01:11.674Z,20.85
2017-05-01T15:02:21.932Z,20.87
2017-05-01T15:03:31.566Z,20.84